Time;durP1;ratioP1;P1;durP2;ratioP2;P2;SDS_P1;SDS_P2;PMS_P1;PMS_P2;Temp;Humidity;BMP_temperature;BMP_pressure;BME280_temperature;BME280_humidity;BME280_pressure;Samples;Min_cycle;Max_cycle;Signal;HPM_P1;HPM_P2
2020/12/18 00:02:24;;;;;;;135.88;48.75;;;154.30;2227.20;;;;;;5018142;28;20033;-77
2020/12/18 00:04:49;;;;;;;134.65;50.20;;;154.30;2227.20;;;;;;5033452;28;20038;-78
2020/12/18 00:07:16;;;;;;;149.95;47.60;;;154.40;2227.20;;;;;;5018218;28;20748;-77
2020/12/18 00:09:42;;;;;;;149.77;50.33;;;154.30;2252.80;;;;;;5033358;28;20141;-78
2020/12/18 00:12:09;;;;;;;146.40;50.00;;;154.30;2252.80;;;;;;5017978;28;20451;-77
2020/12/18 00:14:35;;;;;;;148.00;53.85;;;154.30;2252.80;;;;;;5017952;28;20535;-78
2020/12/18 00:17:01;;;;;;;156.10;55.08;;;154.30;2252.80;;;;;;5017246;28;20037;-78
2020/12/18 00:19:26;;;;;;;157.02;52.28;;;154.30;2252.80;;;;;;5016659;28;20034;-77
2020/12/18 00:21:59;;;;;;;139.00;47.65;;;154.30;2252.80;;;;;;5017704;28;20105;-78
2020/12/18 00:24:25;;;;;;;136.30;52.25;;;154.30;2252.80;;;;;;5017646;28;20113;-78
2020/12/18 00:26:51;;;;;;;145.93;49.35;;;154.30;2252.80;;;;;;5017789;28;20077;-77
2020/12/18 00:29:17;;;;;;;126.72;47.85;;;154.30;2252.80;;;;;;5017697;28;20041;-77
2020/12/18 00:31:43;;;;;;;119.47;42.90;;;154.30;2252.80;;;;;;5017209;28;20036;-77
2020/12/18 00:34:09;;;;;;;112.13;40.50;;;154.30;2227.20;;;;;;5017528;28;20320;-78
2020/12/18 00:36:35;;;;;;;117.25;42.65;;;154.30;2227.20;;;;;;5017611;28;20022;-77
2020/12/18 00:39:02;;;;;;;105.35;42.78;;;154.30;2252.80;;;;;;5032235;28;20477;-77
2020/12/18 00:41:28;;;;;;;107.10;43.42;;;154.30;2252.80;;;;;;5032775;28;20339;-77
2020/12/18 00:43:53;;;;;;;128.85;47.35;;;154.30;2252.80;;;;;;5017589;28;20029;-77
2020/12/18 00:46:19;;;;;;;108.43;44.85;;;154.30;2252.80;;;;;;5017501;28;20025;-76
2020/12/18 00:48:45;;;;;;;115.72;46.97;;;154.40;2227.20;;;;;;5032639;28;20474;-76
2020/12/18 00:51:15;;;;;;;112.80;42.88;;;154.30;2227.20;;;;;;5017590;28;20049;-77
2020/12/18 00:53:41;;;;;;;109.82;44.67;;;154.30;2227.20;;;;;;5032387;28;20029;-76
2020/12/18 00:56:08;;;;;;;103.28;45.50;;;154.30;2227.20;;;;;;5017208;28;20109;-75
2020/12/18 00:58:33;;;;;;;97.00;39.70;;;154.30;2227.20;;;;;;5017030;28;20356;-77
2020/12/18 01:00:59;;;;;;;101.90;43.08;;;154.40;2227.20;;;;;;5032525;28;20026;-77
2020/12/18 01:03:25;;;;;;;113.20;43.78;;;154.40;2252.80;;;;;;5017161;28;20061;-77
2020/12/18 01:05:50;;;;;;;109.22;44.15;;;154.40;2227.20;;;;;;5017119;28;20033;-76
2020/12/18 01:08:16;;;;;;;106.95;40.63;;;154.40;2227.20;;;;;;5017030;28;20105;-76
2020/12/18 01:10:42;;;;;;;114.97;49.28;;;154.40;2227.20;;;;;;5016868;28;20036;-76
2020/12/18 01:13:08;;;;;;;119.38;47.55;;;154.40;2227.20;;;;;;5017063;28;20093;-75
2020/12/18 01:15:33;;;;;;;103.90;44.67;;;154.40;2227.20;;;;;;5032695;28;20428;-75
2020/12/18 01:17:59;;;;;;;92.78;39.22;;;154.40;2227.20;;;;;;5017901;28;20030;-76
2020/12/18 01:20:25;;;;;;;94.53;40.67;;;154.50;2227.20;;;;;;5032176;28;20416;-76
2020/12/18 01:22:50;;;;;;;108.32;43.72;;;154.50;2227.20;;;;;;5016574;28;20113;-76
2020/12/18 01:25:16;;;;;;;102.20;42.33;;;154.50;2227.20;;;;;;5015647;28;20113;-77
2020/12/18 01:27:42;;;;;;;85.65;37.55;;;154.50;2227.20;;;;;;5015559;28;20471;-77
2020/12/18 01:30:08;;;;;;;99.88;39.55;;;154.50;2227.20;;;;;;5017407;28;20423;-76
2020/12/18 01:32:34;;;;;;;82.97;34.97;;;154.50;2227.20;;;;;;5016897;28;20022;-77
2020/12/18 01:34:59;;;;;;;88.57;38.95;;;154.50;2227.20;;;;;;5016579;28;20149;-76
2020/12/18 01:37:25;;;;;;;86.28;35.47;;;154.40;2227.20;;;;;;5016530;28;20026;-76
2020/12/18 01:39:51;;;;;;;84.28;35.05;;;154.50;2227.20;;;;;;5016630;28;20037;-76
2020/12/18 01:42:16;;;;;;;85.88;35.88;;;154.50;2227.20;;;;;;5016645;28;20034;-76
2020/12/18 01:44:42;;;;;;;86.82;34.60;;;154.50;2227.20;;;;;;5016639;28;20486;-76
2020/12/18 01:47:30;;;;;;;75.85;33.85;;;154.50;2227.20;;;;;;5032206;28;20054;-77
2020/12/18 01:49:57;;;;;;;88.95;38.63;;;154.50;2227.20;;;;;;5016595;28;20037;-77
2020/12/18 01:52:24;;;;;;;91.00;38.78;;;154.50;2227.20;;;;;;5020635;28;20412;-76
2020/12/18 01:54:57;;;;;;;90.95;37.70;;;154.50;2227.20;;;;;;5020218;28;20033;-76
2020/12/18 01:57:23;;;;;;;79.70;34.75;;;154.50;2227.20;;;;;;5020229;28;20308;-77
2020/12/18 01:59:49;;;;;;;88.95;35.15;;;154.50;2227.20;;;;;;5020554;28;20030;-77
2020/12/18 02:02:16;;;;;;;96.18;37.58;;;154.50;2227.20;;;;;;5020058;28;20305;-77
2020/12/18 02:04:44;;;;;;;89.80;36.42;;;154.40;2227.20;;;;;;5020164;28;20033;-78
2020/12/18 02:07:15;;;;;;;93.90;36.60;;;154.50;2227.20;;;;;;5020156;28;20021;-77
2020/12/18 02:09:42;;;;;;;94.22;37.97;;;154.50;2227.20;;;;;;5020172;28;20034;-78
2020/12/18 02:12:08;;;;;;;99.50;38.83;;;154.50;2227.20;;;;;;5020276;28;20029;-77
2020/12/18 02:14:34;;;;;;;80.68;33.78;;;154.50;2227.20;;;;;;5020118;28;20022;-77
2020/12/18 02:17:00;;;;;;;95.72;35.15;;;154.50;2227.20;;;;;;5020032;28;20113;-76
2020/12/18 02:19:30;;;;;;;84.43;32.35;;;154.50;2227.20;;;;;;5020117;28;20401;-77
2020/12/18 02:21:55;;;;;;;94.05;34.25;;;154.50;2227.20;;;;;;5019938;28;20054;-77
2020/12/18 02:24:25;;;;;;;95.70;35.40;;;154.50;2227.20;;;;;;5035408;28;20033;-77
2020/12/18 02:26:55;;;;;;;87.07;37.67;;;154.50;2227.20;;;;;;5019893;28;20062;-77
2020/12/18 02:29:21;;;;;;;84.70;35.22;;;154.40;2252.80;;;;;;5019888;28;20408;-76
2020/12/18 02:31:50;;;;;;;103.78;38.67;;;154.40;2252.80;;;;;;5019965;28;20030;-76
2020/12/18 02:34:26;;;;;;;102.18;38.67;;;154.50;2227.20;;;;;;5019989;28;20290;-76
2020/12/18 02:36:52;;;;;;;99.35;39.33;;;154.40;2227.20;;;;;;5020016;28;20030;-77
2020/12/18 02:39:17;;;;;;;112.38;42.92;;;154.40;2252.80;;;;;;5019610;28;20041;-77
2020/12/18 02:41:43;;;;;;;106.25;40.40;;;154.40;2252.80;;;;;;5019689;28;20172;-77
2020/12/18 02:44:10;;;;;;;112.05;41.75;;;154.30;2252.80;;;;;;5019422;28;20311;-77
2020/12/18 02:46:35;;;;;;;120.60;44.35;;;154.40;2252.80;;;;;;5034936;28;20041;-77
2020/12/18 02:49:02;;;;;;;124.30;46.67;;;154.40;2252.80;;;;;;5019562;28;20022;-76
2020/12/18 02:51:27;;;;;;;114.78;43.28;;;154.50;2252.80;;;;;;5035028;28;20052;-77
2020/12/18 02:53:53;;;;;;;128.05;44.38;;;154.50;2227.20;;;;;;5019116;28;20045;-76
2020/12/18 02:56:29;;;;;;;146.32;47.13;;;154.50;2227.20;;;;;;5019524;28;20301;-77
2020/12/18 02:58:55;;;;;;;153.73;49.38;;;154.50;2252.80;;;;;;5019552;28;20032;-76
2020/12/18 03:01:21;;;;;;;182.98;57.40;;;154.50;2252.80;;;;;;5018417;28;20030;-76
2020/12/18 03:03:47;;;;;;;164.07;54.63;;;154.40;2252.80;;;;;;5018641;28;20072;-77
2020/12/18 03:06:12;;;;;;;158.25;52.50;;;154.40;2252.80;;;;;;5019415;28;20424;-76
2020/12/18 03:08:38;;;;;;;169.80;56.55;;;154.30;2252.80;;;;;;5019115;28;20029;-77
2020/12/18 03:11:05;;;;;;;152.63;50.28;;;154.30;2252.80;;;;;;5019012;28;20048;-77
2020/12/18 03:13:32;;;;;;;165.93;50.05;;;154.40;2252.80;;;;;;5019087;28;20022;-77
2020/12/18 03:15:58;;;;;;;150.32;47.97;;;154.40;2252.80;;;;;;5034612;28;20068;-77
2020/12/18 03:18:23;;;;;;;135.35;45.25;;;154.40;2252.80;;;;;;5018994;28;20030;-76
2020/12/18 03:20:49;;;;;;;149.00;48.53;;;154.40;2252.80;;;;;;5018977;28;20029;-76
2020/12/18 03:23:15;;;;;;;143.23;46.33;;;154.40;2252.80;;;;;;5018832;28;20312;-76
2020/12/18 03:25:41;;;;;;;146.38;49.67;;;154.50;2252.80;;;;;;5034576;28;20033;-76
2020/12/18 03:28:06;;;;;;;148.02;46.67;;;154.50;2252.80;;;;;;5019302;28;20323;-75
2020/12/18 03:30:32;;;;;;;135.95;44.33;;;154.40;2252.80;;;;;;5018602;28;20034;-77
2020/12/18 03:32:58;;;;;;;128.18;42.53;;;154.50;2252.80;;;;;;5018633;28;20026;-77
2020/12/18 03:35:23;;;;;;;130.20;44.25;;;154.50;2252.80;;;;;;5034249;28;20030;-76
2020/12/18 03:37:49;;;;;;;129.95;44.88;;;179.20;2252.80;;;;;;5018848;28;20053;-77
2020/12/18 03:40:16;;;;;;;127.57;46.42;;;154.50;2252.80;;;;;;5018551;28;20030;-76
2020/12/18 03:42:42;;;;;;;134.48;43.33;;;154.50;2252.80;;;;;;5018470;28;20323;-77
2020/12/18 03:45:08;;;;;;;138.32;47.20;;;179.20;2252.80;;;;;;5033931;28;20121;-77
2020/12/18 03:47:34;;;;;;;134.50;46.50;;;154.50;2252.80;;;;;;5033822;28;20377;-76
2020/12/18 03:50:00;;;;;;;123.40;44.83;;;154.50;2252.80;;;;;;5018526;28;20038;-76
2020/12/18 03:52:28;;;;;;;129.98;45.88;;;154.50;2252.80;;;;;;5033849;28;20064;-76
2020/12/18 03:54:54;;;;;;;126.43;44.28;;;154.50;2252.80;;;;;;5018240;28;20392;-76
2020/12/18 03:57:20;;;;;;;114.38;42.60;;;154.50;2252.80;;;;;;5018409;28;20026;-75
2020/12/18 03:59:45;;;;;;;110.47;40.80;;;179.20;2252.80;;;;;;5018095;28;20073;-76
2020/12/18 04:02:11;;;;;;;108.82;39.08;;;154.50;2252.80;;;;;;5018446;28;20353;-76
2020/12/18 04:04:37;;;;;;;126.68;44.83;;;154.50;2252.80;;;;;;5018413;28;20036;-76
2020/12/18 04:07:03;;;;;;;123.40;45.38;;;154.50;2252.80;;;;;;5018084;28;20347;-76
2020/12/18 04:09:28;;;;;;;117.90;43.00;;;179.20;2252.80;;;;;;5017852;28;20117;-76
2020/12/18 04:11:54;;;;;;;127.63;49.97;;;179.20;2252.80;;;;;;5018195;28;20068;-76
2020/12/18 04:14:20;;;;;;;135.43;56.00;;;179.20;2252.80;;;;;;5017432;28;20491;-75
2020/12/18 04:16:45;;;;;;;119.53;42.58;;;179.20;2252.80;;;;;;5017712;28;20037;-78
2020/12/18 04:19:11;;;;;;;131.18;48.58;;;179.20;2252.80;;;;;;5018013;28;20014;-76
2020/12/18 04:21:37;;;;;;;125.68;43.20;;;154.50;2252.80;;;;;;5017775;28;20353;-75
2020/12/18 04:24:02;;;;;;;125.68;44.85;;;154.50;2252.80;;;;;;5017786;28;20030;-76
2020/12/18 04:26:28;;;;;;;107.68;41.15;;;179.20;2252.80;;;;;;5032547;28;20438;-76
2020/12/18 04:28:54;;;;;;;115.35;39.55;;;179.20;2252.80;;;;;;5017658;28;20084;-76
2020/12/18 04:31:20;;;;;;;100.97;41.03;;;179.20;2252.80;;;;;;5017504;28;20021;-76
2020/12/18 04:33:46;;;;;;;108.25;41.80;;;179.20;2252.80;;;;;;5017834;28;20371;-76
2020/12/18 04:36:13;;;;;;;96.00;40.10;;;179.20;2252.80;;;;;;5017534;28;20022;-76
2020/12/18 04:38:39;;;;;;;93.70;37.30;;;179.20;2252.80;;;;;;5017580;28;20029;-76
2020/12/18 04:41:06;;;;;;;94.53;38.38;;;179.20;2252.80;;;;;;5032856;28;20359;-76
2020/12/18 04:43:32;;;;;;;89.85;40.67;;;154.50;2252.80;;;;;;5017438;28;20053;-76
2020/12/18 04:45:59;;;;;;;101.55;42.20;;;154.50;2252.80;;;;;;5017313;28;20404;-76
2020/12/18 04:48:26;;;;;;;104.65;44.25;;;154.50;2252.80;;;;;;5017464;28;20065;-76
2020/12/18 04:50:55;;;;;;;113.05;56.95;;;154.50;2252.80;;;;;;5017297;28;20033;-76
2020/12/18 04:53:28;;;;;;;97.82;41.53;;;179.20;2252.80;;;;;;5032978;28;20328;-77
2020/12/18 04:55:55;;;;;;;105.88;49.55;;;179.20;2252.80;;;;;;5017450;28;20018;-76
2020/12/18 04:58:24;;;;;;;105.47;46.45;;;179.30;2252.80;;;;;;5017172;28;20025;-76
2020/12/18 05:00:56;;;;;;;86.60;38.60;;;179.30;2252.80;;;;;;5017511;28;20068;-77
2020/12/18 05:03:23;;;;;;;96.68;37.50;;;179.30;2252.80;;;;;;5017314;28;20034;-77
2020/12/18 05:05:49;;;;;;;86.40;35.40;;;179.20;2252.80;;;;;;5017144;28;20036;-77
2020/12/18 05:08:14;;;;;;;85.05;34.95;;;154.50;2252.80;;;;;;5017007;28;20025;-77
2020/12/18 05:10:40;;;;;;;82.97;34.95;;;154.50;2252.80;;;;;;5016867;28;20049;-77
2020/12/18 05:13:06;;;;;;;87.18;36.25;;;179.20;2252.80;;;;;;5016903;28;20022;-77
2020/12/18 05:15:35;;;;;;;80.78;34.00;;;179.20;2252.80;;;;;;5017093;28;20427;-77
2020/12/18 05:18:01;;;;;;;82.20;32.88;;;179.20;2252.80;;;;;;5016624;28;20048;-76
2020/12/18 05:20:27;;;;;;;85.22;39.50;;;179.20;2252.80;;;;;;5017064;28;20030;-76
2020/12/18 05:22:54;;;;;;;81.03;38.33;;;179.30;2252.80;;;;;;5016783;28;20030;-75
2020/12/18 05:25:20;;;;;;;89.35;36.50;;;179.30;2252.80;;;;;;5016122;28;20029;-74
2020/12/18 05:27:49;;;;;;;81.50;35.55;;;179.20;2252.80;;;;;;5016675;28;20042;-75
2020/12/18 05:30:21;;;;;;;78.00;33.25;;;179.30;2252.80;;;;;;5032209;28;20128;-75
2020/12/18 05:32:52;;;;;;;84.82;35.22;;;179.30;2252.80;;;;;;5016700;28;20531;-75
2020/12/18 05:35:18;;;;;;;89.28;37.00;;;179.30;2252.80;;;;;;5016864;28;20026;-75
2020/12/18 05:37:44;;;;;;;79.28;32.58;;;179.30;2252.80;;;;;;5017177;28;20293;-76
2020/12/18 05:40:10;;;;;;;88.53;36.95;;;179.30;2252.80;;;;;;5017093;28;20424;-75
2020/12/18 05:42:47;;;;;;;83.10;35.75;;;179.30;2252.80;;;;;;5016558;28;20057;-75
2020/12/18 05:45:17;;;;;;;83.15;34.40;;;154.50;2252.80;;;;;;5016736;28;20033;-75
2020/12/18 05:47:52;;;;;;;;;;;179.20;2252.80;;;;;;5016959;28;20041;-75
2020/12/18 05:50:18;;;;;;;85.47;33.90;;;179.30;2252.80;;;;;;5016593;28;19909;-76
2020/12/18 05:52:54;;;;;;;94.55;38.55;;;179.30;2252.80;;;;;;5016585;28;20416;-76
2020/12/18 05:55:20;;;;;;;79.10;33.40;;;179.20;2252.80;;;;;;5016383;28;20018;-76
2020/12/18 05:57:46;;;;;;;80.40;35.22;;;179.20;2252.80;;;;;;5016618;28;20311;-75
2020/12/18 06:00:12;;;;;;;82.88;35.35;;;154.50;2252.80;;;;;;5016624;28;20029;-76
2020/12/18 06:02:40;;;;;;;75.78;33.13;;;179.20;2252.80;;;;;;5016293;28;20430;-76
2020/12/18 06:05:06;;;;;;;85.03;35.55;;;179.30;2252.80;;;;;;5016478;28;20057;-75
2020/12/18 06:07:37;;;;;;;79.38;35.40;;;179.30;2252.80;;;;;;5016311;28;20404;-76
2020/12/18 06:10:04;;;;;;;83.38;34.97;;;179.30;2252.80;;;;;;5016120;28;20903;-75
2020/12/18 06:12:30;;;;;;;74.78;33.92;;;179.30;2252.80;;;;;;5016541;28;20026;-75
2020/12/18 06:14:56;;;;;;;94.25;38.47;;;179.30;2252.80;;;;;;5016420;28;20018;-75
2020/12/18 06:17:35;;;;;;;78.18;34.28;;;179.30;2252.80;;;;;;5016429;28;20026;-75
2020/12/18 06:20:02;;;;;;;88.10;40.65;;;179.30;2252.80;;;;;;5016268;28;20319;-75
2020/12/18 06:22:28;;;;;;;87.25;38.08;;;179.30;2252.80;;;;;;5031668;28;20029;-77
2020/12/18 06:24:54;;;;;;;83.60;39.58;;;179.30;2252.80;;;;;;5016003;28;20030;-76
2020/12/18 06:27:20;;;;;;;85.70;41.60;;;179.30;2252.80;;;;;;5016290;28;20077;-76
2020/12/18 06:29:47;;;;;;;87.75;39.30;;;179.30;2252.80;;;;;;5016159;28;20038;-76
2020/12/18 06:32:30;;;;;;;86.40;38.55;;;179.40;2252.80;;;;;;5031561;28;20037;-77
2020/12/18 06:35:28;;;;;;;85.40;35.92;;;179.40;2252.80;;;;;;5016189;28;20022;-77
2020/12/18 06:37:55;;;;;;;79.88;36.95;;;179.40;2252.80;;;;;;5019747;28;20018;-76
2020/12/18 06:40:31;;;;;;;77.47;36.00;;;179.40;2252.80;;;;;;5019748;28;20076;-78
2020/12/18 06:42:58;;;;;;;79.57;36.30;;;179.40;2252.80;;;;;;5019827;28;20036;-77
2020/12/18 06:45:25;;;;;;;85.85;39.05;;;179.40;2252.80;;;;;;5019632;28;20103;-77
2020/12/18 06:47:52;;;;;;;75.63;37.35;;;179.40;2252.80;;;;;;5018562;28;20040;-76
2020/12/18 06:50:18;;;;;;;78.65;35.03;;;179.40;2252.80;;;;;;5019631;28;20113;-76
2020/12/18 06:52:50;;;;;;;81.38;38.55;;;179.40;2252.80;;;;;;5034884;28;20420;-76
2020/12/18 06:55:32;;;;;;;81.85;38.13;;;179.40;2252.80;;;;;;5035043;28;20064;-78
2020/12/18 06:58:09;;;;;;;88.07;36.33;;;179.40;2252.80;;;;;;5019336;28;20104;-77
2020/12/18 07:00:48;;;;;;;81.47;34.60;;;179.40;2252.80;;;;;;5018861;28;20030;-76
2020/12/18 07:03:33;;;;;;;77.00;33.85;;;179.40;2252.80;;;;;;5019513;28;20040;-75
2020/12/18 07:06:02;;;;;;;69.72;34.22;;;179.40;2252.80;;;;;;5034723;28;20034;-75
2020/12/18 07:08:34;;;;;;;79.55;38.42;;;179.40;2252.80;;;;;;5019143;28;20030;-76
2020/12/18 07:11:08;;;;;;;77.63;33.65;;;179.40;2252.80;;;;;;5018882;28;20030;-76
2020/12/18 07:13:35;;;;;;;89.88;37.58;;;179.50;2252.80;;;;;;5019131;28;20026;-76
2020/12/18 07:16:06;;;;;;;87.82;37.58;;;179.40;2252.80;;;;;;5034428;28;20029;-77
2020/12/18 07:18:34;;;;;;;;;;;179.40;2252.80;;;;;;5019199;28;20351;-75
2020/12/18 07:21:03;;;;;;;92.95;38.17;;;179.40;2252.80;;;;;;5017948;28;20009;-76
2020/12/18 07:23:31;;;;;;;83.35;38.95;;;179.40;2252.80;;;;;;5018778;28;20355;-76
2020/12/18 07:25:58;;;;;;;78.70;39.85;;;179.40;2252.80;;;;;;5018851;28;20412;-76
2020/12/18 07:28:25;;;;;;;88.65;41.53;;;179.40;2252.80;;;;;;5018584;28;20399;-77
2020/12/18 07:30:52;;;;;;;84.75;43.25;;;179.40;2252.80;;;;;;5034312;28;20034;-76
2020/12/18 07:33:19;;;;;;;88.45;41.22;;;179.40;2252.80;;;;;;5018633;28;20053;-74
2020/12/18 07:35:51;;;;;;;90.15;44.08;;;179.50;2252.80;;;;;;5019445;28;20021;-76
2020/12/18 07:38:20;;;;;;;88.07;42.15;;;179.40;2252.80;;;;;;5018425;28;20458;-74
2020/12/18 07:40:48;;;;;;;79.95;39.70;;;179.50;2252.80;;;;;;5033916;28;20415;-76
2020/12/18 07:43:15;;;;;;;88.28;42.83;;;179.50;2252.80;;;;;;5018673;28;20071;-75
2020/12/18 07:45:52;;;;;;;100.35;45.83;;;179.50;2227.20;;;;;;5018406;28;20029;-77
2020/12/18 07:48:47;;;;;;;93.80;48.40;;;179.50;2227.20;;;;;;5017844;28;20065;-77
2020/12/18 07:51:20;;;;;;;86.90;46.97;;;179.50;2227.20;;;;;;5019102;28;20030;-75
2020/12/18 07:53:53;;;;;;;93.07;46.28;;;179.50;2227.20;;;;;;5019206;28;20026;-75
2020/12/18 07:56:21;;;;;;;102.03;47.53;;;179.50;2252.80;;;;;;5018380;28;20030;-74
2020/12/18 07:59:08;;;;;;;102.03;46.90;;;179.50;2227.20;;;;;;5017500;28;20034;-74
2020/12/18 08:01:35;;;;;;;118.57;52.33;;;179.50;2227.20;;;;;;5017544;28;20072;-73
2020/12/18 08:04:08;;;;;;;116.72;54.22;;;179.50;2227.20;;;;;;5018484;28;20022;-75
2020/12/18 08:06:38;;;;;;;100.18;47.53;;;179.60;2227.20;;;;;;5018166;28;20334;-74
2020/12/18 08:09:06;;;;;;;103.15;48.83;;;179.60;2227.20;;;;;;5017906;28;20022;-75
2020/12/18 08:11:34;;;;;;;111.88;53.67;;;179.60;2227.20;;;;;;5035694;28;20022;-75
2020/12/18 08:14:02;;;;;;;104.60;53.53;;;179.50;2227.20;;;;;;5033688;28;20017;-74
2020/12/18 08:16:30;;;;;;;116.35;53.88;;;179.50;2252.80;;;;;;5037171;28;20052;-74
2020/12/18 08:19:01;;;;;;;112.32;50.33;;;179.60;2227.20;;;;;;5036390;28;20026;-72
2020/12/18 08:21:27;;;;;;;;;;;179.60;2227.20;;;;;;5036923;28;20017;-72
2020/12/18 08:24:14;;;;;;;117.32;51.08;;;179.60;2227.20;;;;;;5036212;28;19913;-74
2020/12/18 08:27:05;;;;;;;135.10;66.07;;;179.60;2227.20;;;;;;5033664;28;20045;-74
2020/12/18 08:29:32;;;;;;;148.63;66.40;;;179.60;2227.20;;;;;;5037480;28;20300;-74
2020/12/18 08:32:00;;;;;;;154.48;69.63;;;179.60;2227.20;;;;;;5036005;28;20412;-74
2020/12/18 08:34:33;;;;;;;145.60;61.67;;;179.50;2227.20;;;;;;5037295;28;20176;-74
2020/12/18 08:37:01;;;;;;;137.23;64.57;;;179.60;2227.20;;;;;;5037158;28;20079;-74
2020/12/18 08:39:34;;;;;;;119.78;54.40;;;179.60;2227.20;;;;;;5037210;28;20029;-74
2020/12/18 08:42:02;;;;;;;118.80;55.22;;;179.60;2227.20;;;;;;5037102;28;20029;-73
2020/12/18 08:44:49;;;;;;;118.25;58.95;;;179.60;2227.20;;;;;;5037162;28;20032;-74
2020/12/18 08:47:23;;;;;;;135.82;65.20;;;179.60;2227.20;;;;;;5036700;28;20048;-73
2020/12/18 08:49:50;;;;;;;141.52;68.28;;;179.70;2201.60;;;;;;5036930;28;20423;-74
2020/12/18 08:52:23;;;;;;;121.22;56.03;;;179.60;2201.60;;;;;;5037210;28;20045;-77
2020/12/18 08:54:57;;;;;;;112.18;52.45;;;179.70;2201.60;;;;;;5035954;28;20029;-73
2020/12/18 08:57:26;;;;;;;105.60;52.38;;;179.70;2201.60;;;;;;5036188;28;20108;-79
2020/12/18 09:00:07;;;;;;;99.65;47.70;;;179.80;2201.60;;;;;;5036683;28;20095;-73
2020/12/18 09:02:35;;;;;;;89.90;48.08;;;179.80;2201.60;;;;;;5036645;28;20112;-73
2020/12/18 09:05:13;;;;;;;106.13;50.35;;;179.80;2201.60;;;;;;5033202;28;20061;-76
2020/12/18 09:07:47;;;;;;;125.63;63.38;;;179.80;2201.60;;;;;;5034040;28;20029;-74
2020/12/18 09:10:12;;;;;;;135.50;62.88;;;179.80;2176.00;;;;;;5036281;28;20322;-76
2020/12/18 09:12:43;;;;;;;136.88;65.68;;;179.70;2201.60;;;;;;5049716;28;20148;-75
2020/12/18 09:15:18;;;;;;;97.20;50.10;;;179.80;2176.00;;;;;;5055572;28;20057;-75
2020/12/18 09:17:44;;;;;;;83.20;39.20;;;179.80;2176.00;;;;;;5042973;28;20038;-74
2020/12/18 09:20:23;;;;;;;75.78;36.38;;;179.80;2176.00;;;;;;5036488;28;20025;-74
2020/12/18 09:22:56;;;;;;;63.97;34.00;;;179.80;2176.00;;;;;;5036768;28;20216;-74
2020/12/18 09:25:22;;;;;;;58.38;34.03;;;179.80;2150.40;;;;;;5035478;28;20026;-74
2020/12/18 09:27:58;;;;;;;70.25;34.67;;;179.80;2176.00;;;;;;5036010;28;20051;-74
2020/12/18 09:30:26;;;;;;;63.28;31.30;;;179.80;2176.00;;;;;;5036595;28;20033;-74
2020/12/18 09:33:17;;;;;;;58.47;32.13;;;179.80;2150.40;;;;;;5035292;28;20029;-74
2020/12/18 09:35:43;;;;;;;59.47;32.33;;;179.80;2176.00;;;;;;5036432;28;20021;-74
2020/12/18 09:38:10;;;;;;;61.30;32.10;;;179.80;2150.40;;;;;;5036431;28;20017;-75
2020/12/18 09:40:36;;;;;;;72.90;36.53;;;179.80;2150.40;;;;;;5036539;28;20059;-74
2020/12/18 09:43:02;;;;;;;73.32;39.63;;;179.80;2150.40;;;;;;5036237;28;20033;-74
2020/12/18 09:45:28;;;;;;;64.40;35.85;;;179.80;2150.40;;;;;;5036385;28;20041;-74
2020/12/18 09:47:54;;;;;;;78.78;38.75;;;179.70;2124.80;;;;;;5036251;28;20030;-74
2020/12/18 09:50:19;;;;;;;74.30;38.63;;;179.80;2124.80;;;;;;5036302;28;20045;-74
2020/12/18 09:52:46;;;;;;;66.50;36.00;;;179.80;2150.40;;;;;;5036460;28;20029;-74
2020/12/18 09:55:13;;;;;;;60.05;34.92;;;179.80;2124.80;;;;;;5036561;28;20319;-75
2020/12/18 09:57:39;;;;;;;58.63;35.70;;;179.80;2124.80;;;;;;5035273;28;20336;-74
2020/12/18 10:00:06;;;;;;;74.70;40.72;;;179.80;2124.80;;;;;;5036414;28;20160;-74
2020/12/18 10:02:32;;;;;;;131.60;67.00;;;179.80;2124.80;;;;;;5035849;28;20022;-74
2020/12/18 10:04:58;;;;;;;150.30;74.75;;;179.80;2099.20;;;;;;5035594;28;20033;-75
2020/12/18 10:07:24;;;;;;;142.23;77.65;;;179.80;2124.80;;;;;;5036299;28;20025;-74
2020/12/18 10:09:50;;;;;;;116.15;63.72;;;179.80;2124.80;;;;;;5036138;28;20415;-75
2020/12/18 10:12:16;;;;;;;91.82;52.17;;;179.80;2099.20;;;;;;5039517;28;20029;-74
2020/12/18 10:14:41;;;;;;;78.28;45.22;;;179.90;2099.20;;;;;;5038514;28;20411;-75
2020/12/18 10:17:07;;;;;;;113.97;64.07;;;179.90;2099.20;;;;;;5039980;28;20032;-75
2020/12/18 10:19:35;;;;;;;104.70;60.60;;;179.80;2124.80;;;;;;5071868;28;20039;-76
2020/12/18 10:22:01;;;;;;;79.22;41.70;;;179.70;2124.80;;;;;;5037063;28;20144;-76
2020/12/18 10:24:27;;;;;;;57.20;33.50;;;179.80;2124.80;;;;;;5039913;28;20359;-74
2020/12/18 10:26:53;;;;;;;48.40;29.85;;;179.80;2124.80;;;;;;5039871;28;20083;-75
2020/12/18 10:29:19;;;;;;;58.85;31.50;;;179.80;2124.80;;;;;;5037473;28;20041;-75
2020/12/18 10:31:44;;;;;;;65.80;32.15;;;179.80;2124.80;;;;;;5035871;28;20063;-74
2020/12/18 10:34:10;;;;;;;50.30;29.17;;;179.80;2124.80;;;;;;5033957;28;20076;-75
2020/12/18 10:36:36;;;;;;;47.33;27.58;;;179.80;2124.80;;;;;;5036954;28;20411;-75
2020/12/18 10:39:01;;;;;;;49.78;27.42;;;179.80;2124.80;;;;;;5036802;28;20026;-76
2020/12/18 10:41:27;;;;;;;50.10;29.92;;;179.80;2099.20;;;;;;5037899;28;20447;-75
2020/12/18 10:43:53;;;;;;;54.08;28.48;;;179.90;2099.20;;;;;;5037876;28;20408;-75
2020/12/18 10:46:18;;;;;;;55.63;31.20;;;179.90;2099.20;;;;;;5037643;28;20029;-75
2020/12/18 10:48:44;;;;;;;52.00;30.27;;;179.90;2099.20;;;;;;5037768;28;20026;-75
2020/12/18 10:51:10;;;;;;;52.35;31.27;;;179.90;2124.80;;;;;;5037454;28;20030;-75
2020/12/18 10:53:35;;;;;;;52.78;30.63;;;179.90;2099.20;;;;;;5038880;28;20025;-75
2020/12/18 10:56:02;;;;;;;48.10;29.90;;;179.90;2124.80;;;;;;5039210;28;20028;-77
2020/12/18 10:58:27;;;;;;;57.97;32.50;;;179.90;2124.80;;;;;;5039266;28;20018;-75
2020/12/18 11:00:53;;;;;;;58.17;31.35;;;180.00;2099.20;;;;;;5039077;28;20380;-76
2020/12/18 11:03:19;;;;;;;70.32;34.67;;;179.90;2124.80;;;;;;5038721;28;20029;-75
2020/12/18 11:05:44;;;;;;;69.93;33.75;;;179.90;2099.20;;;;;;5038895;28;20075;-76
2020/12/18 11:08:10;;;;;;;64.80;31.83;;;179.90;2099.20;;;;;;5038963;28;20036;-75
2020/12/18 11:10:36;;;;;;;50.00;29.50;;;179.90;2124.80;;;;;;5038969;28;20100;-75
2020/12/18 11:13:02;;;;;;;44.30;27.67;;;179.90;2099.20;;;;;;5038949;28;20296;-75
2020/12/18 11:15:28;;;;;;;37.55;26.73;;;180.00;2099.20;;;;;;5037947;28;20116;-74
2020/12/18 11:17:56;;;;;;;47.10;28.92;;;180.00;2073.60;;;;;;5037701;28;20112;-73
2020/12/18 11:20:22;;;;;;;48.70;28.48;;;180.00;2099.20;;;;;;5038241;28;20053;-74
2020/12/18 11:22:48;;;;;;;47.80;28.73;;;180.00;2099.20;;;;;;5036014;28;20304;-73
2020/12/18 11:25:14;;;;;;;47.90;31.60;;;180.00;2073.60;;;;;;5038557;28;20029;-74
2020/12/18 11:27:39;;;;;;;42.67;25.27;;;180.00;2099.20;;;;;;5037648;28;20038;-74
2020/12/18 11:30:06;;;;;;;42.70;27.42;;;180.00;2073.60;;;;;;5038688;28;20128;-74
2020/12/18 11:32:33;;;;;;;48.40;29.63;;;180.00;2073.60;;;;;;5038549;28;20045;-75
2020/12/18 11:34:58;;;;;;;53.58;33.72;;;180.00;2099.20;;;;;;5037548;28;20034;-76
2020/12/18 11:37:24;;;;;;;51.67;28.42;;;180.00;2099.20;;;;;;5038831;28;20526;-79
2020/12/18 11:39:50;;;;;;;59.92;32.15;;;180.00;2099.20;;;;;;5039038;28;20049;-77
2020/12/18 11:42:16;;;;;;;51.50;30.65;;;180.00;2099.20;;;;;;5038375;28;20109;-75
2020/12/18 11:44:41;;;;;;;53.58;32.00;;;180.00;2099.20;;;;;;5038550;28;20036;-74
2020/12/18 11:47:07;;;;;;;56.10;31.17;;;180.00;2099.20;;;;;;5038211;28;20076;-74
2020/12/18 11:49:33;;;;;;;55.22;31.48;;;179.90;2099.20;;;;;;5038033;28;20033;-75
2020/12/18 11:51:59;;;;;;;51.08;28.83;;;180.00;2124.80;;;;;;5037029;28;20438;-76
2020/12/18 11:54:24;;;;;;;47.63;27.13;;;180.00;2124.80;;;;;;5037962;28;20025;-75
2020/12/18 11:56:51;;;;;;;39.47;25.77;;;180.00;2099.20;;;;;;5037928;28;20021;-76
2020/12/18 11:59:17;;;;;;;45.67;25.67;;;180.10;2099.20;;;;;;5037884;28;20331;-75
2020/12/18 12:01:42;;;;;;;55.67;29.17;;;180.00;2124.80;;;;;;5037906;28;20032;-77